Buckeye, AZ

1:37 AM MST on May 27, 2018 (GMT -0700)
Buckeye Municipal

Weather History for KBXK - June, 2013

Change the Weather History Date:

Friday, June 21, 2013

  Actual Average (KGYR) Record (KGYR)
Temperature  
Mean Temperature 86 °F -  
Max Temperature 104 °F 102 °F 116 °F (2008)
Min Temperature 69 °F 73 °F 69 °F (2003)
Cooling Degree Days 22    
Growing Degree Days 36 (Base 50)    
Moisture  
Dew Point 26 °F    
Average Humidity 11    
Maximum Humidity 19    
Minimum Humidity 4    
Precipitation  
Precipitation 0.00 in - - ()
Sea Level Pressure  
Sea Level Pressure 29.77 in    
Wind  
Wind Speed 6 mph (South)    
Max Wind Speed 16 mph    
Max Gust Speed 23 mph    
Visibility 10 miles    
Events      
Averages and records for this station are not official NWS values.
T = Trace of Precipitation, MM = Missing Value Source: NWS Daily Summary

Daily Weather History Graph

Daily Weather History Graph

Search for Another Location

Airport or City:

Astronomy

Jun. 21, 2013 Rise Set
Actual Time 5:21 AM MST 7:43 PM MST
Civil Twilight 4:52 AM MST 8:12 PM MST
Nautical Twilight 4:17 AM MST 8:48 PM MST
Astronomical Twilight 3:38 AM MST 9:27 PM MST
Moon 6:01 PM MST (6/21) 3:36 AM MST (6/21)
Length of Visible Light 15h 20m
Length of Day
14h 22m
Waxing Gibbous, 96% of the Moon is Illuminated
Jun 21
Waxing Gibbous
Jun 23
Full
Jun 29
Last Quarter
Jul 8
New
Jul 15
First Quarter

Hourly Weather History & Observations

Time (MST) Temp. Dew Point Humidity Pressure Visibility Wind Dir Wind Speed Gust Speed Precip Events Conditions
12:15 AM 84.2 °F 15.8 °F 8% 29.75 in 10.0 mi Calm Calm - N/A   Clear
12:35 AM 82.4 °F 17.6 °F 9% 29.75 in 10.0 mi Calm Calm - N/A   Clear
12:55 AM 77.0 °F 15.8 °F 10% 29.75 in 10.0 mi NNE 6.9 mph - N/A   Clear
1:15 AM 77.0 °F 15.8 °F 10% 29.75 in 10.0 mi NNW 4.6 mph - N/A   Clear
1:35 AM 77.0 °F 17.6 °F 11% 29.75 in 10.0 mi NNW 5.8 mph - N/A   Clear
1:55 AM 77.0 °F 17.6 °F 11% 29.75 in 10.0 mi Calm Calm - N/A   Clear
2:15 AM 75.2 °F 17.6 °F 11% 29.75 in 10.0 mi NW 3.5 mph - N/A   Clear
2:35 AM 73.4 °F 17.6 °F 12% 29.76 in 10.0 mi North 8.1 mph - N/A   Clear
2:55 AM 73.4 °F 17.6 °F 12% 29.76 in 10.0 mi North 9.2 mph - N/A   Clear
3:15 AM 73.4 °F 21.2 °F 14% 29.76 in 10.0 mi North 9.2 mph - N/A   Clear
3:35 AM 73.4 °F 21.2 °F 14% 29.76 in 10.0 mi North 4.6 mph - N/A   Clear
3:55 AM 71.6 °F 19.4 °F 14% 29.76 in 10.0 mi North 5.8 mph - N/A   Clear
4:15 AM 71.6 °F 19.4 °F 14% 29.77 in 10.0 mi NNE 5.8 mph - N/A   Clear
4:35 AM 69.8 °F 19.4 °F 15% 29.77 in 10.0 mi North 8.1 mph - N/A   Clear
4:55 AM 69.8 °F 19.4 °F 15% 29.77 in 10.0 mi NNE 5.8 mph - N/A   Clear
5:15 AM 69.8 °F 21.2 °F 16% 29.78 in 10.0 mi North 5.8 mph - N/A   Clear
5:35 AM 69.8 °F 21.2 °F 16% 29.79 in 10.0 mi North 6.9 mph - N/A   Clear
5:55 AM 71.6 °F 23.0 °F 16% 29.80 in 10.0 mi NNE 4.6 mph - N/A   Clear
6:15 AM 73.4 °F 23.0 °F 15% 29.80 in 10.0 mi NNE 4.6 mph - N/A   Clear
6:35 AM 77.0 °F 24.8 °F 14% 29.81 in 10.0 mi Calm Calm - N/A   Clear
6:55 AM 78.8 °F 26.6 °F 15% 29.81 in 10.0 mi ENE 3.5 mph - N/A   Clear
7:15 AM 80.6 °F 28.4 °F 15% 29.82 in 10.0 mi ESE 4.6 mph - N/A   Clear
7:35 AM 82.4 °F 28.4 °F 14% 29.82 in 10.0 mi ESE 6.9 mph - N/A   Clear
7:55 AM 82.4 °F 32.0 °F 16% 29.83 in 10.0 mi ESE 5.8 mph - N/A   Clear
8:15 AM 84.2 °F 37.4 °F 19% 29.83 in 10.0 mi ESE 6.9 mph - N/A   Clear
8:35 AM 86.0 °F 39.2 °F 19% 29.84 in 10.0 mi ESE 8.1 mph - N/A   Clear
8:55 AM 86.0 °F 33.8 °F 15% 29.84 in 10.0 mi ESE 8.1 mph - N/A   Clear
9:15 AM 89.6 °F 32.0 °F 13% 29.84 in 10.0 mi ESE 8.1 mph - N/A   Clear
9:35 AM 89.6 °F 28.4 °F 11% 29.84 in 10.0 mi ESE 5.8 mph - N/A   Clear
9:55 AM 89.6 °F 32.0 °F 13% 29.84 in 10.0 mi ESE 5.8 mph - N/A   Clear
10:15 AM 89.6 °F 30.2 °F 12% 29.84 in 10.0 mi East 4.6 mph - N/A   Clear
10:35 AM 91.4 °F 32.0 °F 12% 29.84 in 10.0 mi SSE 3.5 mph - N/A   Clear
10:55 AM 93.2 °F 32.0 °F 11% 29.83 in 10.0 mi SSE 4.6 mph - N/A   Clear
11:15 AM 93.2 °F 28.4 °F 10% 29.83 in 10.0 mi SE 4.6 mph - N/A   Clear
11:35 AM 95.0 °F 28.4 °F 9% 29.82 in 10.0 mi SSW 5.8 mph - N/A   Clear
11:55 AM 95.0 °F 26.6 °F 9% 29.82 in 10.0 mi SSW 5.8 mph - N/A   Clear
12:15 PM 95.0 °F 28.4 °F 9% 29.81 in 10.0 mi SE 4.6 mph - N/A   Clear
12:35 PM 95.0 °F 26.6 °F 9% 29.81 in 10.0 mi South 3.5 mph - N/A   Clear
12:55 PM 96.8 °F 26.6 °F 8% 29.81 in 10.0 mi South 5.8 mph - N/A   Clear
1:15 PM 100.4 °F 24.8 °F 7% 29.80 in 10.0 mi SW 12.7 mph 17.3 mph N/A   Clear
1:35 PM 100.4 °F 24.8 °F 7% 29.80 in 10.0 mi South 6.9 mph - N/A   Clear
1:55 PM 100.4 °F 24.8 °F 7% 29.78 in 10.0 mi South 10.4 mph 16.1 mph N/A   Clear
2:15 PM 102.2 °F 26.6 °F 7% 29.78 in 10.0 mi SSW 13.8 mph 19.6 mph N/A   Clear
2:35 PM 102.2 °F 24.8 °F 6% 29.77 in 10.0 mi SSW 11.5 mph - N/A   Clear
2:55 PM 100.4 °F 26.6 °F 7% 29.76 in 10.0 mi SSE 8.1 mph - N/A   Clear
3:15 PM 102.2 °F 26.6 °F 7% 29.75 in 10.0 mi South 10.4 mph 16.1 mph N/A   Clear
3:35 PM 102.2 °F 26.6 °F 7% 29.74 in 10.0 mi SSW 9.2 mph 16.1 mph N/A   Clear
3:55 PM 104.0 °F 23.0 °F 6% 29.73 in 10.0 mi South 13.8 mph 23.0 mph N/A   Clear
4:15 PM 104.0 °F 19.4 °F 5% 29.73 in 9.0 mi SSW 13.8 mph 23.0 mph N/A   Clear
4:35 PM 102.2 °F 19.4 °F 5% 29.72 in 10.0 mi SW 16.1 mph - N/A   Clear
4:55 PM 102.2 °F 23.0 °F 6% 29.71 in 10.0 mi SSW 15.0 mph 19.6 mph N/A   Clear
5:15 PM 102.2 °F 23.0 °F 6% 29.71 in 10.0 mi SSW 13.8 mph 19.6 mph N/A   Clear
5:35 PM 102.2 °F 17.6 °F 5% 29.71 in 10.0 mi SSW 12.7 mph - N/A   Clear
5:55 PM 102.2 °F 14.0 °F 4% 29.70 in 10.0 mi SSW 13.8 mph - N/A   Clear
6:15 PM 100.4 °F 19.4 °F 5% 29.70 in 10.0 mi SSW 10.4 mph - N/A   Clear
6:35 PM 98.6 °F 23.0 °F 7% 29.70 in 10.0 mi SSW 8.1 mph - N/A   Clear
6:55 PM 98.6 °F 23.0 °F 7% 29.70 in 10.0 mi SSW 6.9 mph - N/A   Clear
7:15 PM 95.0 °F 26.6 °F 9% 29.70 in 10.0 mi SSW 6.9 mph - N/A   Clear
7:35 PM 93.2 °F 26.6 °F 9% 29.70 in 10.0 mi SSW 8.1 mph - N/A   Clear
7:55 PM 91.4 °F 32.0 °F 12% 29.71 in 9.0 mi South 5.8 mph - N/A   Clear
8:15 PM 87.8 °F 32.0 °F 14% 29.71 in 8.0 mi South 5.8 mph - N/A   Clear
8:35 PM 87.8 °F 33.8 °F 15% 29.71 in 4.0 mi SSE 3.5 mph - N/A   Clear
8:55 PM 86.0 °F 33.8 °F 15% 29.72 in 5.0 mi Calm Calm - N/A   Clear
9:15 PM 86.0 °F 33.8 °F 15% 29.72 in 5.0 mi Calm Calm - N/A   Clear
9:35 PM 86.0 °F 33.8 °F 15% 29.73 in 10.0 mi South 4.6 mph - N/A   Clear
9:55 PM 86.0 °F 33.8 °F 15% 29.73 in 10.0 mi SSW 6.9 mph - N/A   Clear
10:15 PM 86.0 °F 32.0 °F 14% 29.73 in 10.0 mi SSW 10.4 mph - N/A   Clear
10:35 PM 82.4 °F 35.6 °F 19% 29.74 in 10.0 mi South 5.8 mph - N/A   Clear
10:55 PM 82.4 °F 33.8 °F 17% 29.74 in 10.0 mi SSW 5.8 mph - N/A   Clear
11:15 PM 82.4 °F 32.0 °F 16% 29.74 in 10.0 mi SW 8.1 mph - N/A   Clear
11:35 PM 82.4 °F 30.2 °F 15% 29.75 in 10.0 mi SW 10.4 mph - N/A   Clear
11:55 PM 82.4 °F 32.0 °F 16% 29.74 in 10.0 mi SW 6.9 mph - N/A   Clear